createdAt,value
2023-05-13T00:00:21.108Z,138.77
2023-05-13T00:01:20.914Z,136.65
2023-05-13T00:02:20.993Z,137.95
2023-05-13T00:03:21.112Z,137.52
2023-05-13T00:04:21.078Z,137.90
2023-05-13T00:05:21.116Z,138.18
2023-05-13T00:06:21.234Z,136.62
2023-05-13T00:07:21.237Z,136.71
2023-05-13T00:08:21.263Z,137.08
2023-05-13T00:09:21.314Z,138.84
2023-05-13T00:10:21.505Z,139.42
2023-05-13T00:11:21.407Z,137.44
2023-05-13T00:12:21.484Z,137.44
2023-05-13T00:13:21.513Z,137.14
2023-05-13T00:14:21.554Z,138.59
2023-05-13T00:15:21.621Z,138.85
2023-05-13T00:16:21.715Z,138.92
2023-05-13T00:17:21.760Z,138.07
2023-05-13T00:18:21.778Z,139.05
2023-05-13T00:19:21.826Z,138.28
2023-05-13T00:20:22.173Z,136.83
2023-05-13T00:21:21.922Z,139.78
2023-05-13T00:22:21.965Z,137.51
2023-05-13T00:23:22.006Z,139.66
2023-05-13T00:24:22.071Z,138.76
2023-05-13T00:25:22.118Z,138.86
2023-05-13T00:26:22.174Z,138.14
2023-05-13T00:27:22.222Z,141.03
2023-05-13T00:28:22.276Z,139.12
2023-05-13T00:29:22.328Z,139.13
2023-05-13T00:30:22.550Z,139.38
2023-05-13T00:31:22.453Z,139.30
2023-05-13T00:32:22.512Z,138.26
2023-05-13T00:33:22.534Z,141.34
2023-05-13T00:34:22.598Z,138.39
2023-05-13T00:35:22.645Z,138.68
2023-05-13T00:36:22.706Z,138.63
2023-05-13T00:37:22.762Z,140.25
2023-05-13T00:38:22.822Z,142.10
2023-05-13T00:39:22.852Z,140.80
2023-05-13T00:40:23.268Z,140.63
2023-05-13T00:41:22.966Z,139.92
2023-05-13T00:42:23.013Z,139.70
2023-05-13T00:43:23.075Z,139.75
2023-05-13T00:44:23.120Z,140.48
2023-05-13T00:45:23.188Z,139.92
2023-05-13T00:46:23.346Z,140.13
2023-05-13T00:47:23.312Z,140.83
2023-05-13T00:48:23.336Z,139.08
2023-05-13T00:49:23.395Z,139.57
2023-05-13T00:50:23.665Z,141.60
2023-05-13T00:51:23.511Z,141.37
2023-05-13T00:52:23.556Z,140.23
2023-05-13T00:53:23.627Z,139.73
2023-05-13T00:54:23.690Z,139.66
2023-05-13T00:55:23.734Z,142.27
2023-05-13T00:56:23.775Z,139.93
2023-05-13T00:57:23.844Z,140.67
2023-05-13T00:58:23.896Z,140.06
2023-05-13T00:59:23.945Z,143.69
2023-05-13T01:00:24.017Z,140.81
2023-05-13T01:01:24.140Z,141.28
2023-05-13T01:02:24.197Z,139.57
2023-05-13T01:03:24.203Z,141.13
2023-05-13T01:04:24.217Z,141.29
2023-05-13T01:05:24.272Z,142.23
2023-05-13T01:06:31.348Z,139.68
2023-05-13T01:07:24.316Z,139.98
2023-05-13T01:08:24.465Z,140.78
2023-05-13T01:09:24.303Z,141.12
2023-05-13T01:10:24.334Z,141.21
2023-05-13T01:11:24.291Z,142.44
2023-05-13T01:12:24.282Z,143.95
2023-05-13T01:13:24.464Z,140.73
2023-05-13T01:14:24.268Z,141.05
2023-05-13T01:15:24.258Z,141.41
2023-05-13T01:16:24.298Z,141.80
2023-05-13T01:17:24.287Z,140.16
2023-05-13T01:18:24.513Z,141.25
2023-05-13T01:19:24.231Z,142.17
2023-05-13T01:20:24.401Z,139.87
2023-05-13T01:21:24.204Z,140.08
2023-05-13T01:22:24.213Z,141.44
2023-05-13T01:23:24.204Z,141.35
2023-05-13T01:24:24.254Z,143.32
2023-05-13T01:25:24.203Z,141.10
2023-05-13T01:26:24.228Z,141.35
2023-05-13T01:27:24.186Z,141.10
2023-05-13T01:28:24.166Z,141.84
2023-05-13T01:29:24.152Z,141.17
2023-05-13T01:30:24.291Z,142.92
2023-05-13T01:31:24.370Z,140.23
2023-05-13T01:32:24.371Z,141.24
2023-05-13T01:33:24.399Z,139.89
2023-05-13T01:34:24.433Z,142.37
2023-05-13T01:35:24.506Z,144.08
2023-05-13T01:36:24.557Z,139.19
2023-05-13T01:37:24.603Z,142.53
2023-05-13T01:38:24.990Z,142.14
2023-05-13T01:39:24.744Z,141.43
2023-05-13T01:41:25.788Z,142.08
2023-05-13T01:42:24.772Z,141.79
2023-05-13T01:43:24.758Z,142.47
2023-05-13T01:44:24.753Z,141.79
2023-05-13T01:45:24.755Z,143.91
2023-05-13T01:46:24.792Z,142.23
2023-05-13T01:47:24.776Z,142.57
2023-05-13T01:48:24.725Z,143.05
2023-05-13T01:49:24.748Z,141.13
2023-05-13T01:50:24.902Z,141.49
2023-05-13T01:51:24.863Z,143.66
2023-05-13T01:52:24.927Z,140.51
2023-05-13T01:53:24.985Z,142.57
2023-05-13T01:54:25.042Z,141.32
2023-05-13T01:55:25.106Z,141.50
2023-05-13T01:56:25.174Z,140.63
2023-05-13T01:57:25.219Z,141.73
2023-05-13T01:58:25.291Z,141.49
2023-05-13T01:59:25.336Z,142.28
2023-05-13T02:00:25.384Z,142.50
2023-05-13T02:01:25.492Z,140.69
2023-05-13T02:02:25.550Z,143.65
2023-05-13T02:03:25.598Z,141.59
2023-05-13T02:04:25.661Z,144.01
2023-05-13T02:05:25.673Z,140.98
2023-05-13T02:06:25.738Z,141.36
2023-05-13T02:07:25.800Z,141.29
2023-05-13T02:08:25.864Z,143.58
2023-05-13T02:09:25.916Z,142.03
2023-05-13T02:10:25.974Z,141.53
2023-05-13T02:11:26.016Z,141.07
2023-05-13T02:12:26.091Z,140.67
2023-05-13T02:13:26.498Z,142.04
2023-05-13T02:14:26.206Z,140.75
2023-05-13T02:15:26.272Z,143.42
2023-05-13T02:16:26.360Z,141.95
2023-05-13T02:17:26.427Z,141.66
2023-05-13T02:18:26.484Z,142.37
2023-05-13T02:19:26.511Z,139.71
2023-05-13T02:20:26.575Z,141.20
2023-05-13T02:21:26.643Z,141.25
2023-05-13T02:22:26.701Z,140.68
2023-05-13T02:23:26.750Z,142.32
2023-05-13T02:24:26.808Z,140.95
2023-05-13T02:25:26.858Z,140.68
2023-05-13T02:26:26.933Z,141.59
2023-05-13T02:27:27.002Z,139.42
2023-05-13T02:28:27.099Z,140.79
2023-05-13T02:29:27.101Z,144.11
2023-05-13T02:30:27.182Z,142.38
2023-05-13T02:31:27.231Z,139.95
2023-05-13T02:32:27.300Z,142.80
2023-05-13T02:33:27.356Z,138.90
2023-05-13T02:34:27.422Z,140.95
2023-05-13T02:35:27.473Z,138.10
2023-05-13T02:36:27.522Z,144.77
2023-05-13T02:37:27.594Z,142.77
2023-05-13T02:38:27.666Z,139.37
2023-05-13T02:39:27.704Z,140.26
2023-05-13T02:40:27.773Z,141.42
2023-05-13T02:41:27.831Z,140.32
2023-05-13T02:42:27.884Z,140.56
2023-05-13T02:43:27.946Z,141.20
2023-05-13T02:44:28.000Z,139.24
2023-05-13T02:45:28.049Z,142.24
2023-05-13T02:46:28.188Z,143.91
2023-05-13T02:47:28.237Z,141.77
2023-05-13T02:48:28.262Z,140.78
2023-05-13T02:49:28.316Z,140.67
2023-05-13T02:50:28.351Z,140.59
2023-05-13T02:51:28.386Z,144.22
2023-05-13T02:52:28.437Z,140.01
2023-05-13T02:53:28.513Z,141.68
2023-05-13T02:54:28.574Z,140.37
2023-05-13T02:55:28.716Z,142.99
2023-05-13T02:56:28.695Z,142.88
2023-05-13T02:57:28.727Z,141.21
2023-05-13T02:58:28.795Z,142.51
2023-05-13T02:59:28.900Z,141.59
2023-05-13T03:00:28.921Z,142.38
2023-05-13T03:01:29.027Z,141.64
2023-05-13T03:02:29.115Z,140.51
2023-05-13T03:03:29.475Z,144.29
2023-05-13T03:04:29.128Z,141.31
2023-05-13T03:05:29.947Z,141.45
2023-05-13T03:06:29.245Z,142.05
2023-05-13T03:07:29.288Z,141.02
2023-05-13T03:08:29.347Z,140.79
2023-05-13T03:09:29.393Z,142.61
2023-05-13T03:10:29.447Z,140.60
2023-05-13T03:11:29.566Z,142.37
2023-05-13T03:12:29.535Z,138.85
2023-05-13T03:13:29.591Z,142.08
2023-05-13T03:14:29.621Z,141.77
2023-05-13T03:15:29.674Z,140.52
2023-05-13T03:16:29.739Z,139.22
2023-05-13T03:17:29.798Z,141.23
2023-05-13T03:18:29.861Z,141.08
2023-05-13T03:19:29.876Z,140.86
2023-05-13T03:20:29.926Z,140.69
2023-05-13T03:21:29.947Z,141.20
2023-05-13T03:22:29.978Z,141.50
2023-05-13T03:23:30.051Z,139.51
2023-05-13T03:24:30.099Z,142.09
2023-05-13T03:25:30.157Z,140.03
2023-05-13T03:26:30.203Z,141.07
2023-05-13T03:27:30.262Z,140.59
2023-05-13T03:28:30.337Z,141.98
2023-05-13T03:29:30.374Z,141.48
2023-05-13T03:30:30.449Z,141.00
2023-05-13T03:31:30.629Z,140.37
2023-05-13T03:32:30.676Z,142.32
2023-05-13T03:33:30.618Z,139.81
2023-05-13T03:34:30.659Z,140.00
2023-05-13T03:35:30.719Z,143.64
2023-05-13T03:36:30.785Z,138.56
2023-05-13T03:37:30.866Z,139.82
2023-05-13T03:38:30.906Z,139.92
2023-05-13T03:39:30.956Z,141.58
2023-05-13T03:40:31.006Z,138.62
2023-05-13T03:41:31.072Z,139.08
2023-05-13T03:42:31.140Z,139.06
2023-05-13T03:43:31.190Z,142.20
2023-05-13T03:44:31.247Z,137.97
2023-05-13T03:45:31.340Z,140.83
2023-05-13T03:46:31.372Z,138.24
2023-05-13T03:47:31.471Z,140.00
2023-05-13T03:48:31.460Z,138.67
2023-05-13T03:49:31.508Z,141.11
2023-05-13T03:50:31.575Z,138.90
2023-05-13T03:51:31.626Z,138.71
2023-05-13T03:52:31.703Z,136.55
2023-05-13T03:53:31.739Z,141.36
2023-05-13T03:54:31.799Z,140.46
2023-05-13T03:55:31.867Z,141.08
2023-05-13T03:56:31.941Z,140.59
2023-05-13T03:57:31.964Z,139.34
2023-05-13T03:58:32.059Z,137.21
2023-05-13T03:59:32.085Z,141.72
2023-05-13T04:00:32.160Z,140.77
2023-05-13T04:01:32.224Z,138.31
2023-05-13T04:02:32.403Z,138.26
2023-05-13T04:03:32.385Z,139.88
2023-05-13T04:04:32.414Z,139.40
2023-05-13T04:05:32.445Z,141.40
2023-05-13T04:06:32.485Z,137.23
2023-05-13T04:07:32.551Z,139.71
2023-05-13T04:08:32.614Z,139.54
2023-05-13T04:09:32.659Z,138.36
2023-05-13T04:10:32.723Z,139.60
2023-05-13T04:11:32.810Z,141.55
2023-05-13T04:12:32.829Z,139.24
2023-05-13T04:13:32.923Z,139.18
2023-05-13T04:14:32.994Z,139.20
2023-05-13T04:15:33.000Z,138.99
2023-05-13T04:16:33.095Z,140.13
2023-05-13T04:17:33.146Z,136.58
2023-05-13T04:18:33.234Z,137.96
2023-05-13T04:19:33.221Z,137.44
2023-05-13T04:20:33.300Z,140.07
2023-05-13T04:21:33.339Z,139.44
2023-05-13T04:22:33.391Z,140.55
2023-05-13T04:23:33.442Z,139.88
2023-05-13T04:24:33.533Z,140.36
2023-05-13T04:25:33.561Z,137.15
2023-05-13T04:26:33.600Z,138.92
2023-05-13T04:27:33.637Z,140.31
2023-05-13T04:28:33.723Z,138.96
2023-05-13T04:29:33.761Z,138.96
2023-05-13T04:30:33.813Z,141.39
2023-05-13T04:31:33.949Z,138.91
2023-05-13T04:32:33.990Z,136.60
2023-05-13T04:33:33.948Z,135.86
2023-05-13T04:34:34.059Z,137.38
2023-05-13T04:35:34.054Z,137.09
2023-05-13T04:36:34.111Z,137.23
2023-05-13T04:37:34.194Z,139.54
2023-05-13T04:38:34.195Z,138.28
2023-05-13T04:39:34.231Z,135.49
2023-05-13T04:40:34.293Z,137.77
2023-05-13T04:41:34.353Z,139.05
2023-05-13T04:42:34.426Z,138.28
2023-05-13T04:43:34.468Z,140.58
2023-05-13T04:44:34.510Z,138.60
2023-05-13T04:45:34.549Z,136.15
2023-05-13T04:46:34.637Z,138.47
2023-05-13T04:47:34.675Z,136.80
2023-05-13T04:48:34.700Z,135.86
2023-05-13T04:49:34.748Z,138.41
2023-05-13T04:50:34.825Z,135.07
2023-05-13T04:51:34.842Z,140.09
2023-05-13T04:52:34.892Z,136.81
2023-05-13T04:53:34.940Z,139.07
2023-05-13T04:54:34.963Z,136.15
2023-05-13T04:55:35.012Z,138.90
2023-05-13T04:56:35.042Z,136.52
2023-05-13T04:57:35.108Z,139.37
2023-05-13T04:58:35.113Z,138.02
2023-05-13T04:59:35.134Z,138.28
2023-05-13T05:00:35.154Z,136.49
2023-05-13T05:01:35.243Z,138.42
2023-05-13T05:02:35.292Z,135.26
2023-05-13T05:03:35.331Z,137.77
2023-05-13T05:04:35.318Z,137.46
2023-05-13T05:05:35.358Z,137.99
2023-05-13T05:06:35.394Z,136.54
2023-05-13T05:07:35.451Z,136.70
2023-05-13T05:08:35.508Z,137.06
2023-05-13T05:09:35.567Z,135.57
2023-05-13T05:10:35.641Z,138.48
2023-05-13T05:11:35.640Z,133.77
2023-05-13T05:12:35.658Z,137.77
2023-05-13T05:13:35.699Z,135.82
2023-05-13T05:14:35.732Z,136.05
2023-05-13T05:15:35.756Z,134.89
2023-05-13T05:16:35.791Z,134.40
2023-05-13T05:17:35.867Z,136.02
2023-05-13T05:18:35.983Z,136.38
2023-05-13T05:19:35.912Z,135.72
2023-05-13T05:20:35.974Z,135.90
2023-05-13T05:21:35.997Z,135.35
2023-05-13T05:22:36.051Z,138.64
2023-05-13T05:23:36.060Z,135.75
2023-05-13T05:24:36.059Z,135.88
2023-05-13T05:25:36.094Z,133.49
2023-05-13T05:26:36.125Z,135.01
2023-05-13T05:27:36.166Z,135.13
2023-05-13T05:28:36.198Z,135.39
2023-05-13T05:29:36.215Z,134.30
2023-05-13T05:30:36.220Z,133.74
2023-05-13T05:31:36.292Z,133.67
2023-05-13T05:32:36.334Z,134.84
2023-05-13T05:33:36.325Z,133.53
2023-05-13T05:34:36.368Z,135.85
2023-05-13T05:35:36.436Z,134.43
2023-05-13T05:36:38.218Z,135.18
2023-05-13T05:37:36.489Z,132.29
2023-05-13T05:38:36.570Z,137.13
2023-05-13T05:39:36.598Z,134.05
2023-05-13T05:40:36.595Z,134.15
2023-05-13T05:41:36.656Z,133.62
2023-05-13T05:42:36.671Z,133.79
2023-05-13T05:43:36.698Z,134.60
2023-05-13T05:44:36.740Z,134.60
2023-05-13T05:45:36.801Z,132.96
2023-05-13T05:46:36.770Z,137.40
2023-05-13T05:47:36.806Z,135.14
2023-05-13T05:48:37.086Z,135.02
2023-05-13T05:49:36.875Z,134.35
2023-05-13T05:50:36.920Z,135.12
2023-05-13T05:51:36.952Z,132.37
2023-05-13T05:52:37.006Z,134.65
2023-05-13T05:53:37.046Z,136.91
2023-05-13T05:54:37.058Z,131.82
2023-05-13T05:55:37.101Z,136.41
2023-05-13T05:56:37.129Z,132.20
2023-05-13T05:57:37.184Z,135.64
2023-05-13T05:58:37.574Z,133.85
2023-05-13T05:59:37.269Z,133.37
2023-05-13T06:00:37.367Z,135.69
2023-05-13T06:01:37.385Z,134.12
2023-05-13T06:02:37.474Z,136.97
2023-05-13T06:03:37.499Z,134.09
2023-05-13T06:04:37.582Z,136.80
2023-05-13T06:05:37.589Z,135.91
2023-05-13T06:06:37.830Z,131.87
2023-05-13T06:07:37.715Z,130.25
2023-05-13T06:08:37.699Z,133.04
2023-05-13T06:09:37.744Z,131.85
2023-05-13T06:10:37.794Z,135.53
2023-05-13T06:11:37.834Z,133.08
2023-05-13T06:12:37.883Z,135.26
2023-05-13T06:13:37.909Z,135.93
2023-05-13T06:14:37.990Z,132.95
2023-05-13T06:15:38.030Z,132.93
2023-05-13T06:16:38.009Z,131.68
2023-05-13T06:17:38.071Z,133.44
2023-05-13T06:18:38.113Z,131.88
2023-05-13T06:19:38.090Z,131.77
2023-05-13T06:20:38.103Z,132.44
2023-05-13T06:21:38.126Z,132.30
2023-05-13T06:22:38.150Z,132.91
2023-05-13T06:23:38.178Z,134.21
2023-05-13T06:24:38.222Z,130.82
2023-05-13T06:25:38.292Z,130.17
2023-05-13T06:26:38.325Z,134.98
2023-05-13T06:27:38.392Z,128.97
2023-05-13T06:28:38.454Z,128.58
2023-05-13T06:29:38.508Z,131.19
2023-05-13T06:30:38.635Z,132.17
2023-05-13T06:31:38.669Z,134.77
2023-05-13T06:32:42.740Z,130.39
2023-05-13T06:33:39.666Z,130.66
2023-05-13T06:34:38.653Z,131.06
2023-05-13T06:35:38.657Z,132.10
2023-05-13T06:36:38.645Z,133.51
2023-05-13T06:37:38.637Z,129.53
2023-05-13T06:38:38.628Z,132.28
2023-05-13T06:39:38.635Z,133.77
2023-05-13T06:40:38.604Z,131.50
2023-05-13T06:41:38.631Z,130.86
2023-05-13T06:42:38.632Z,129.65
2023-05-13T06:43:38.706Z,132.73
2023-05-13T06:44:38.754Z,128.51
2023-05-13T06:45:38.814Z,131.94
2023-05-13T06:46:38.915Z,129.81
2023-05-13T06:47:38.999Z,131.32
2023-05-13T06:48:38.999Z,131.12
2023-05-13T06:49:39.062Z,128.88
2023-05-13T06:50:39.140Z,132.11
2023-05-13T06:51:39.172Z,131.22
2023-05-13T06:52:41.728Z,131.66
2023-05-13T06:53:39.237Z,132.87
2023-05-13T06:54:39.227Z,130.11
2023-05-13T06:55:39.213Z,132.34
2023-05-13T06:56:39.207Z,129.59
2023-05-13T06:57:42.949Z,130.24
2023-05-13T06:58:39.195Z,130.58
2023-05-13T06:59:39.207Z,131.14
2023-05-13T07:00:39.229Z,132.00
2023-05-13T07:01:39.206Z,131.62
2023-05-13T07:02:39.219Z,132.75
2023-05-13T07:03:39.205Z,133.29
2023-05-13T07:04:39.184Z,129.56
2023-05-13T07:05:39.151Z,132.17
2023-05-13T07:06:39.151Z,131.42
2023-05-13T07:07:39.146Z,126.34
2023-05-13T07:08:39.116Z,129.37
2023-05-13T07:09:39.600Z,131.72
2023-05-13T07:10:39.101Z,128.90
2023-05-13T07:11:39.100Z,132.28
2023-05-13T07:12:39.086Z,128.41
2023-05-13T07:13:39.320Z,129.90
2023-05-13T07:14:39.123Z,127.50
2023-05-13T07:15:39.187Z,130.46
2023-05-13T07:16:39.264Z,126.91
2023-05-13T07:17:39.330Z,130.35
2023-05-13T07:18:39.420Z,130.78
2023-05-13T07:19:39.422Z,130.01
2023-05-13T07:20:39.445Z,132.91
2023-05-13T07:21:39.474Z,126.98
2023-05-13T07:22:39.509Z,131.25
2023-05-13T07:23:39.570Z,130.08
2023-05-13T07:24:39.592Z,131.43
2023-05-13T07:25:39.639Z,129.99
2023-05-13T07:26:39.674Z,129.10
2023-05-13T07:27:39.734Z,127.97
2023-05-13T07:28:39.771Z,127.52
2023-05-13T07:29:39.834Z,130.13
2023-05-13T07:30:39.897Z,130.29
2023-05-13T07:31:39.925Z,127.61
2023-05-13T07:32:40.087Z,129.42
2023-05-13T07:33:40.026Z,129.87
2023-05-13T07:34:40.106Z,128.78
2023-05-13T07:35:40.121Z,129.92
2023-05-13T07:36:40.151Z,129.84
2023-05-13T07:37:40.195Z,130.46
2023-05-13T07:38:40.246Z,128.20
2023-05-13T07:39:40.277Z,131.55
2023-05-13T07:40:40.302Z,126.59
2023-05-13T07:41:40.329Z,125.93
2023-05-13T07:42:40.380Z,126.09
2023-05-13T07:43:40.396Z,125.94
2023-05-13T07:44:40.433Z,130.36
2023-05-13T07:45:40.475Z,125.63
2023-05-13T07:46:40.560Z,130.16
2023-05-13T07:47:41.557Z,125.24
2023-05-13T07:48:40.553Z,131.24
2023-05-13T07:49:40.552Z,128.67
2023-05-13T07:50:40.544Z,128.33
2023-05-13T07:51:40.523Z,128.84
2023-05-13T07:52:40.516Z,127.35
2023-05-13T07:53:40.532Z,130.63
2023-05-13T07:54:40.512Z,129.50
2023-05-13T07:55:40.508Z,127.82
2023-05-13T07:56:40.494Z,126.51
2023-05-13T07:57:40.484Z,125.63
2023-05-13T07:58:40.481Z,124.91
2023-05-13T07:59:41.348Z,125.85
2023-05-13T08:00:40.463Z,126.00
2023-05-13T08:01:40.481Z,126.58
2023-05-13T08:02:40.524Z,126.41
2023-05-13T08:03:40.653Z,127.33
2023-05-13T08:04:40.686Z,127.23
2023-05-13T08:05:40.607Z,128.76
2023-05-13T08:06:40.643Z,126.73
2023-05-13T08:07:40.730Z,126.94
2023-05-13T08:08:40.718Z,126.38
2023-05-13T08:09:40.809Z,127.98
2023-05-13T08:10:40.814Z,125.99
2023-05-13T08:11:40.900Z,128.06
2023-05-13T08:12:40.921Z,123.18
2023-05-13T08:13:40.988Z,128.50
2023-05-13T08:14:41.047Z,128.14
2023-05-13T08:15:41.059Z,126.22
2023-05-13T08:16:41.162Z,126.36
2023-05-13T08:17:41.172Z,125.55
2023-05-13T08:18:41.226Z,126.88
2023-05-13T08:19:41.232Z,125.02
2023-05-13T08:20:41.299Z,126.77
2023-05-13T08:21:41.340Z,127.66
2023-05-13T08:22:41.388Z,126.68
2023-05-13T08:23:46.014Z,127.99
2023-05-13T08:24:41.437Z,128.17
2023-05-13T08:25:41.438Z,128.00
2023-05-13T08:26:41.424Z,128.72
2023-05-13T08:27:41.431Z,127.67
2023-05-13T08:28:42.436Z,125.99
2023-05-13T08:29:41.423Z,125.72
2023-05-13T08:30:41.409Z,124.93
2023-05-13T08:31:41.440Z,126.25
2023-05-13T08:32:41.477Z,125.51
2023-05-13T08:33:41.386Z,124.87
2023-05-13T08:34:41.373Z,127.19
2023-05-13T08:35:42.913Z,125.15
2023-05-13T08:36:41.417Z,128.87
2023-05-13T08:37:41.419Z,127.16
2023-05-13T08:38:41.392Z,125.42
2023-05-13T08:39:41.428Z,127.20
2023-05-13T08:40:41.376Z,123.82
2023-05-13T08:41:41.386Z,125.66
2023-05-13T08:42:41.369Z,128.31
2023-05-13T08:43:41.349Z,125.26
2023-05-13T08:44:41.347Z,124.19
2023-05-13T08:45:41.433Z,125.86
2023-05-13T08:46:41.337Z,125.43
2023-05-13T08:47:41.372Z,126.02
2023-05-13T08:48:41.323Z,127.88
2023-05-13T08:49:41.321Z,125.78
2023-05-13T08:50:41.307Z,124.98
2023-05-13T08:51:41.296Z,126.80
2023-05-13T08:52:41.288Z,124.66
2023-05-13T08:53:41.283Z,127.15
2023-05-13T08:54:41.285Z,124.19
2023-05-13T08:55:41.297Z,125.32
2023-05-13T08:56:41.256Z,125.88
2023-05-13T08:57:41.263Z,125.32
2023-05-13T08:58:41.272Z,124.47
2023-05-13T08:59:41.269Z,124.35
2023-05-13T09:00:41.226Z,124.59
2023-05-13T09:01:41.292Z,124.16
2023-05-13T09:02:41.237Z,123.97
2023-05-13T09:03:41.214Z,125.64
2023-05-13T09:04:41.274Z,123.59
2023-05-13T09:05:41.372Z,122.97
2023-05-13T09:06:41.183Z,123.13
2023-05-13T09:07:41.176Z,124.73
2023-05-13T09:08:41.177Z,123.25
2023-05-13T09:09:41.206Z,125.53
2023-05-13T09:10:41.171Z,122.93
2023-05-13T09:11:43.244Z,124.45
2023-05-13T09:12:41.146Z,126.45
2023-05-13T09:13:41.136Z,124.61
2023-05-13T09:14:41.132Z,125.44
2023-05-13T09:15:41.126Z,125.84
2023-05-13T09:16:41.141Z,124.34
2023-05-13T09:17:41.139Z,123.66
2023-05-13T09:18:41.184Z,124.50
2023-05-13T09:19:41.171Z,123.25
2023-05-13T09:20:41.088Z,123.60
2023-05-13T09:21:41.084Z,126.76
2023-05-13T09:22:41.096Z,121.87
2023-05-13T09:23:41.064Z,123.60
2023-05-13T09:24:41.057Z,125.24
2023-05-13T09:25:41.055Z,124.42
2023-05-13T09:26:41.046Z,124.90
2023-05-13T09:27:41.045Z,125.04
2023-05-13T09:28:41.025Z,123.74
2023-05-13T09:29:41.028Z,124.44
2023-05-13T09:30:42.615Z,125.16
2023-05-13T09:31:41.179Z,125.28
2023-05-13T09:32:41.063Z,125.33
2023-05-13T09:33:41.014Z,122.55
2023-05-13T09:34:41.006Z,124.28
2023-05-13T09:35:40.978Z,124.03
2023-05-13T09:36:40.974Z,126.23
2023-05-13T09:37:40.977Z,124.77
2023-05-13T09:38:40.977Z,126.61
2023-05-13T09:39:40.971Z,122.96
2023-05-13T09:40:40.950Z,122.34
2023-05-13T09:41:40.940Z,124.93
2023-05-13T09:42:40.954Z,122.80
2023-05-13T09:43:40.919Z,125.74
2023-05-13T09:44:40.953Z,123.44
2023-05-13T09:45:40.914Z,125.65
2023-05-13T09:46:40.967Z,123.58
2023-05-13T09:47:40.922Z,123.08
2023-05-13T09:48:40.898Z,121.38
2023-05-13T09:49:40.875Z,123.35
2023-05-13T09:50:40.891Z,123.77
2023-05-13T09:51:40.864Z,124.74
2023-05-13T09:52:40.857Z,127.15
2023-05-13T09:53:40.858Z,120.31
2023-05-13T09:54:40.870Z,124.07
2023-05-13T09:55:40.836Z,125.59
2023-05-13T09:56:40.851Z,125.57
2023-05-13T09:57:40.851Z,123.54
2023-05-13T09:58:40.840Z,121.76
2023-05-13T09:59:40.846Z,123.33
2023-05-13T10:00:41.270Z,121.34
2023-05-13T10:01:40.993Z,123.50
2023-05-13T10:02:41.017Z,121.57
2023-05-13T10:03:41.092Z,122.90
2023-05-13T10:04:41.110Z,121.86
2023-05-13T10:05:41.164Z,122.28
2023-05-13T10:06:41.202Z,122.09
2023-05-13T10:07:41.278Z,123.79
2023-05-13T10:08:41.338Z,122.25
2023-05-13T10:09:41.374Z,122.54
2023-05-13T10:10:41.427Z,121.00
2023-05-13T10:11:41.450Z,122.67
2023-05-13T10:12:41.513Z,121.29
2023-05-13T10:13:41.552Z,121.45
2023-05-13T10:14:41.622Z,123.70
2023-05-13T10:15:41.680Z,123.81
2023-05-13T10:16:41.791Z,120.88
2023-05-13T10:17:41.863Z,121.41
2023-05-13T10:18:41.899Z,121.94
2023-05-13T10:19:41.901Z,120.89
2023-05-13T10:20:41.968Z,120.28
2023-05-13T10:21:42.043Z,121.41
2023-05-13T10:22:42.080Z,121.70
2023-05-13T10:23:42.129Z,121.56
2023-05-13T10:24:42.199Z,124.38
2023-05-13T10:25:42.244Z,121.49
2023-05-13T10:26:42.281Z,120.96
2023-05-13T10:27:42.340Z,121.64
2023-05-13T10:28:42.392Z,123.04
2023-05-13T10:29:42.444Z,123.54
2023-05-13T10:30:42.557Z,124.12
2023-05-13T10:31:42.630Z,124.08
2023-05-13T10:32:42.726Z,123.40
2023-05-13T10:33:42.693Z,120.66
2023-05-13T10:34:42.744Z,123.54
2023-05-13T10:35:43.266Z,124.24
2023-05-13T10:36:42.855Z,125.86
2023-05-13T10:37:42.926Z,122.07
2023-05-13T10:38:42.966Z,124.33
2023-05-13T10:39:43.031Z,123.42
2023-05-13T10:40:43.099Z,120.14
2023-05-13T10:41:43.146Z,122.58
2023-05-13T10:42:43.279Z,123.33
2023-05-13T10:43:43.228Z,122.46
2023-05-13T10:44:43.306Z,121.63
2023-05-13T10:45:43.359Z,122.24
2023-05-13T10:46:43.559Z,121.63
2023-05-13T10:47:43.547Z,124.17
2023-05-13T10:48:43.756Z,122.03
2023-05-13T10:49:43.577Z,123.80
2023-05-13T10:50:43.643Z,120.80
2023-05-13T10:51:43.692Z,123.67
2023-05-13T10:52:43.755Z,121.13
2023-05-13T10:53:43.815Z,120.13
2023-05-13T10:54:43.890Z,120.91
2023-05-13T10:55:43.943Z,122.45
2023-05-13T10:56:44.003Z,122.80
2023-05-13T10:57:44.063Z,121.23
2023-05-13T10:58:44.136Z,123.76
2023-05-13T10:59:44.198Z,124.36
2023-05-13T11:00:44.269Z,123.64
2023-05-13T11:01:44.485Z,119.00
2023-05-13T11:02:44.436Z,121.49
2023-05-13T11:03:44.518Z,119.80
2023-05-13T11:04:44.489Z,121.78
2023-05-13T11:05:44.542Z,122.33
2023-05-13T11:06:44.582Z,121.82
2023-05-13T11:07:44.629Z,121.02
2023-05-13T11:08:44.732Z,122.06
2023-05-13T11:09:44.762Z,121.94
2023-05-13T11:10:44.823Z,122.61
2023-05-13T11:11:44.904Z,122.64
2023-05-13T11:12:44.947Z,122.39
2023-05-13T11:13:44.997Z,122.99
2023-05-13T11:14:45.065Z,121.76
2023-05-13T11:15:45.152Z,123.36
2023-05-13T11:16:45.244Z,120.26
2023-05-13T11:17:45.255Z,121.46
2023-05-13T11:18:45.359Z,121.38
2023-05-13T11:19:45.353Z,122.92
2023-05-13T11:20:52.180Z,122.95
2023-05-13T11:21:46.421Z,123.17
2023-05-13T11:22:45.419Z,122.62
2023-05-13T11:23:45.392Z,123.00
2023-05-13T11:24:45.413Z,124.34
2023-05-13T11:25:45.409Z,121.10
2023-05-13T11:26:45.372Z,123.14
2023-05-13T11:27:45.374Z,119.82
2023-05-13T11:28:45.364Z,120.58
2023-05-13T11:29:45.353Z,119.69
2023-05-13T11:30:45.391Z,122.68
2023-05-13T11:31:45.543Z,122.41
2023-05-13T11:32:45.539Z,121.27
2023-05-13T11:33:45.565Z,120.58
2023-05-13T11:34:45.618Z,119.64
2023-05-13T11:35:45.679Z,119.43
2023-05-13T11:36:45.727Z,121.87
2023-05-13T11:37:45.788Z,122.02
2023-05-13T11:38:45.844Z,121.80
2023-05-13T11:39:45.939Z,121.55
2023-05-13T11:40:45.973Z,120.05
2023-05-13T11:41:46.045Z,119.52
2023-05-13T11:42:46.088Z,120.48
2023-05-13T11:43:46.134Z,120.49
2023-05-13T11:44:46.189Z,120.57
2023-05-13T11:45:46.284Z,120.37
2023-05-13T11:46:46.309Z,118.64
2023-05-13T11:47:46.406Z,118.01
2023-05-13T11:48:46.409Z,116.75
2023-05-13T11:49:46.491Z,120.03
2023-05-13T11:50:46.547Z,119.36
2023-05-13T11:51:46.585Z,119.17
2023-05-13T11:52:46.648Z,119.69
2023-05-13T11:53:46.710Z,118.32
2023-05-13T11:54:46.764Z,118.13
2023-05-13T11:55:46.854Z,118.66
2023-05-13T11:56:46.884Z,116.95
2023-05-13T11:57:46.939Z,116.91
2023-05-13T11:58:46.984Z,116.21
2023-05-13T11:59:48.472Z,116.13
2023-05-13T12:00:47.076Z,115.60
2023-05-13T12:01:47.194Z,117.87
2023-05-13T12:02:47.224Z,117.50
2023-05-13T12:03:47.220Z,116.26
2023-05-13T12:04:47.281Z,117.04
2023-05-13T12:05:47.337Z,117.84
2023-05-13T12:06:47.350Z,114.65
2023-05-13T12:07:47.393Z,119.04
2023-05-13T12:08:47.441Z,117.17
2023-05-13T12:09:47.491Z,116.99
2023-05-13T12:10:47.537Z,115.28
2023-05-13T12:11:47.590Z,115.66
2023-05-13T12:12:47.602Z,117.08
2023-05-13T12:13:47.644Z,116.15
2023-05-13T12:14:47.700Z,117.65
2023-05-13T12:15:47.742Z,117.61
2023-05-13T12:16:47.773Z,115.71
2023-05-13T12:17:47.896Z,116.28
2023-05-13T12:18:47.888Z,117.78
2023-05-13T12:19:47.904Z,114.98
2023-05-13T12:20:47.952Z,115.52
2023-05-13T12:21:47.989Z,117.20
2023-05-13T12:22:48.028Z,117.31
2023-05-13T12:23:48.092Z,114.94
2023-05-13T12:24:48.104Z,115.35
2023-05-13T12:25:48.173Z,116.23
2023-05-13T12:26:48.177Z,114.28
2023-05-13T12:27:48.218Z,115.12
2023-05-13T12:28:48.286Z,115.27
2023-05-13T12:29:48.301Z,115.98